Neillsville, WI (54456)

1:06 PM CDT on April 27, 2017 (GMT -0500)
central wisconsin | | Change Station

Elev 945 ft 44.35 °N, 90.34 °W | Updated 3 seconds ago

Overcast
Overcast
34.2 °F
Feels Like 34 °F
N
0.2
Wind Variable Wind from SW
Gusts 2.5 mph

Today
High -- | Low -- °F
--% Chance of Precip.
Yesterday
High -- | Low -- °F
Precip. -- in
Pressure 29.48 in
Visibility 2.5 miles
Clouds Mostly Cloudy 800 ft
Overcast 1500 ft
Windchill 34 °F
Dew Point 17 °F
Humidity 49%
Rainfall 0.00 in
Snow Depth Not available.
5:58 AM 8:02 PM
New Moon, 2% visible
SPECI KMFI 271803Z AUTO 29010KT 2 1/2SM BR BKN008 OVC015 00/M01 A2948 RMK AO2 T00001011
Pressure 29.48 in
Visibility 2.5 miles
Clouds Mostly Cloudy 800 ft
Overcast 1500 ft
Windchill 34 °F
Dew Point 17 °F
Humidity 49%
Rainfall 0.00 in
Snow Depth Not available.
5:58 AM 8:02 PM
New Moon, 2% visible
SPECI KMFI 271803Z AUTO 29010KT 2 1/2SM BR BKN008 OVC015 00/M01 A2948 RMK AO2 T00001011

Get Severe Weather Alerts

Thanks for signing up!

Be on the lookout for a verification email in your inbox.

You'll start receiving the daily forecast at 8 AM.

×

10-Day Weather Forecast

Almanac

Astronomy

Apr. 27, 2017 Rise Set
Actual Time
Civil Twilight
Nautical Twilight
Astronomical Twilight
Moon
Length of Visible Light
Length of Day
Tomorrow will be .
, % of the Moon is Illuminated

Today's Extremes

State Highs State Lows

Community

WunderPhotos

WunderBlog® & News

Nearby

Air Quality

  Air Quality AQ Index Pollutant
Not available.

Snow Depth

Station Depth Elevation

Earthquake Activity

City Distance Mag. Time & Date
Minimum magnitude displayed is 2.5.

Coastal Water Temperatures

Place Temperature

Stations

Nearby Weather Stations

Station Location Temp. Windchill Dew Point Humidity Wind Precip. Elev Updated Type
                   

Watches & Warnings

There are currently no watches in effect.